ヤクーツク の空港の天気 - METARとTAF

ヤクーツク空港 ( UEEE / YKS ) - ロシア ヤクーツク
飛行場実況気象(Metar)
観測時間10/20 13:00 YAKT (10/20 04:00 UTC)
風向・風速北 1m/s
視程5000m
天気現象もや
なし
気温-3℃
湿度100%
気圧1017hPa
METARUEEE 200400Z 36001MPS 5000 BR NSC M03/M03 Q1017 R23L/09//51 NOSIG RMK QFE754
過去の天気等 Google飛行場航空写真 Wunderground天気予報

過去48時間のMETAR

飛行場予報(TAF)
発表時間: 10/20 13:03 YAKT (10/20 04:03 UTC)
予報対象時間: 20日13時 YAKT ~ 21日18時 YAKT
風向・風速北 3m/s
視程3200m
天気現象もや
全天の4割程度の積乱雲 雲底高度 610m
20日13時 YAKT ~ 20日21時 YAKT に一時的に
視程300m
天気現象氷霧
全天を覆う雲 鉛直視程 90m
TAF AMD UEEE 200403Z 2004/2109 36003MPS 3200 BR SCT020CB
TEMPO 2004/2012 0300 FZFG VV003